首页
METAR-TAF:

METAR-TAF

机场 :

襄陽國際機場

襄陽郡, 大韩民国

纬度: 38-03-41N, 经度: 128-40-09E, 海拔: 73米

当前天气观测

该预报发布于1小时和2分钟前的03:00 UTC
风速6节,风向北转东北
温度 19°C
湿度 60%
气压 1009 hPa
能见度10公里或以上
少量云层高于3500英尺
多云层高于9000英尺

METAR: RKNY 280300Z 03006KT 9999 FEW035 BKN090 19/11 Q1009 NOSIG

时间: 13:02 (04:02 UTC)

预报

该预报发布于5小时和2分钟前的23:00 UTC
预报有效从28日的 00点(UTC)到 29日的 06点(UTC)
风速8节,风向
能见度10公里或以上
多云层高于3000英尺
成为
从 28日的 01点(UTC)到 28日的 03点(UTC)
散云层高于3000英尺
成为
从 28日的 13点(UTC)到 28日的 15点(UTC)
风速6节,风向南转西南
能见度10公里或以上
1500米以下无云,无积雨云
成为
从 28日的 19点(UTC)到 28日的 21点(UTC)
风速8节,风向西

TAF: RKNY 272300Z 2800/2906 36008KT 9999 BKN030 TX20/2806Z TN14/2820Z TX26/2906Z BECMG 2801/2803 SCT030 BECMG 2813/2815 20006KT CAVOK BECMG 2819/2821 26008KT

超过4000个机场的气象观测和天气预报(METAR&TAF报告)。

可查询的气象台以黄色和红色小点在地图上表示。

将鼠标移到小点上方,可查看气象台名称。

然后点击查看天气观测和预报。

如需切换地图:点击带黑十字的绿色按钮放大地图;点击带横线的绿色按钮缩小地图;或者点击绿色箭头查看邻近地区的地图。


METAR-TAF: